createdAt,value
2018-06-19T00:06:35.481Z,55.20
2018-06-19T00:16:40.324Z,55.20
2018-06-19T00:26:45.055Z,55.10
2018-06-19T00:36:50.194Z,55.10
2018-06-19T00:46:56.019Z,55.20
2018-06-19T00:57:01.115Z,55.20
2018-06-19T01:07:05.820Z,55.20
2018-06-19T01:17:10.653Z,55.30
2018-06-19T01:27:15.422Z,55.20
2018-06-19T01:37:20.162Z,55.50
2018-06-19T01:47:25.400Z,55.80
2018-06-19T01:57:31.062Z,55.30
2018-06-19T02:07:35.812Z,55.30
2018-06-19T02:17:40.436Z,55.30
2018-06-19T02:27:45.155Z,55.20
2018-06-19T02:37:49.898Z,55.20
2018-06-19T02:47:54.597Z,55.20
2018-06-19T02:57:59.487Z,55.20
2018-06-19T03:08:04.310Z,55.30
2018-06-19T03:18:09.223Z,55.20
2018-06-19T03:28:14.126Z,55.20
2018-06-19T03:38:19.084Z,55.30
2018-06-19T03:48:24.140Z,55.20
2018-06-19T03:58:29.064Z,55.30
2018-06-19T04:08:33.833Z,55.30
2018-06-19T04:18:38.593Z,55.30
2018-06-19T04:28:43.344Z,55.90
2018-06-19T04:38:48.068Z,55.20
2018-06-19T04:48:52.873Z,55.20
2018-06-19T04:58:57.544Z,55.30
2018-06-19T05:09:02.417Z,55.30
2018-06-19T05:19:07.092Z,55.80
2018-06-19T05:29:11.966Z,55.30
2018-06-19T05:49:22.146Z,55.40
2018-06-19T06:19:36.678Z,55.40
2018-06-19T06:29:41.342Z,55.40
2018-06-19T06:39:46.071Z,55.40
2018-06-19T06:49:50.960Z,55.40
2018-06-19T06:59:55.710Z,55.40
2018-06-19T07:10:00.578Z,55.40
2018-06-19T07:20:06.333Z,55.40
2018-06-19T07:30:11.066Z,55.50
2018-06-19T07:40:15.859Z,55.40
2018-06-19T07:50:20.740Z,55.50
2018-06-19T08:10:29.891Z,55.50
2018-06-19T08:20:34.628Z,55.50
2018-06-19T08:30:39.245Z,55.50
2018-06-19T08:40:44.987Z,55.60
2018-06-19T08:50:49.804Z,55.60
2018-06-19T09:00:54.507Z,55.60
2018-06-19T09:10:59.389Z,55.60
2018-06-19T09:21:04.364Z,55.50
2018-06-19T09:31:09.456Z,56.20
2018-06-19T09:41:14.877Z,55.60
2018-06-19T09:51:19.633Z,55.60
2018-06-19T10:01:24.397Z,55.60
2018-06-19T10:11:29.299Z,56.20
2018-06-19T10:21:34.160Z,55.40
2018-06-19T10:31:38.958Z,55.40
2018-06-19T10:41:43.661Z,55.40
2018-06-19T10:51:48.388Z,55.40
2018-06-19T11:01:53.099Z,55.40
2018-06-19T11:11:57.757Z,55.30
2018-06-19T11:22:02.534Z,55.40
2018-06-19T11:32:07.346Z,55.50
2018-06-19T11:42:12.190Z,55.40
2018-06-19T11:52:17.180Z,55.30
2018-06-19T12:02:21.973Z,55.30
2018-06-19T12:12:26.720Z,55.80
2018-06-19T12:22:31.950Z,55.30
2018-06-19T12:32:36.757Z,55.90
2018-06-19T12:42:41.389Z,55.40
2018-06-19T12:53:02.826Z,55.30
2018-06-19T13:03:24.607Z,55.40
2018-06-19T13:13:46.004Z,55.40
2018-06-19T13:23:50.724Z,55.40
2018-06-19T13:33:56.392Z,55.40
2018-06-19T13:44:18.040Z,55.40
2018-06-19T13:54:22.789Z,55.50
2018-06-19T14:04:27.478Z,55.50
2018-06-19T14:14:32.161Z,55.80
2018-06-19T14:24:37.073Z,56.30
2018-06-19T14:34:41.758Z,57.30
2018-06-19T14:44:46.637Z,57.60
2018-06-19T14:54:51.441Z,57.80
2018-06-19T15:04:57.175Z,57.40
2018-06-19T15:15:01.992Z,57.50
2018-06-19T15:25:06.744Z,57.10
2018-06-19T15:35:11.501Z,57.00
2018-06-19T15:45:16.239Z,56.70
2018-06-19T15:55:21.131Z,56.70
2018-06-19T16:05:25.859Z,56.60
2018-06-19T16:15:30.745Z,56.40
2018-06-19T16:25:35.641Z,56.30
2018-06-19T16:35:41.316Z,56.20
2018-06-19T16:45:47.701Z,56.20
2018-06-19T16:55:53.210Z,56.20
2018-06-19T17:05:57.932Z,56.10
2018-06-19T17:16:02.627Z,56.00
2018-06-19T17:26:07.308Z,56.00
2018-06-19T17:36:12.825Z,56.00
2018-06-19T17:58:02.806Z,55.90
2018-06-19T18:08:08.568Z,55.90
2018-06-19T18:18:13.872Z,55.80
2018-06-19T18:28:18.797Z,55.80
2018-06-19T18:38:23.540Z,55.80
2018-06-19T18:48:28.601Z,55.80
2018-06-19T18:58:33.432Z,55.80
2018-06-19T19:08:37.980Z,55.80
2018-06-19T19:18:47.867Z,55.90
2018-06-19T19:28:57.767Z,55.90
2018-06-19T19:39:07.825Z,56.00
2018-06-19T19:49:12.699Z,55.90
2018-06-19T19:59:17.453Z,56.00
2018-06-19T20:09:22.177Z,55.70
2018-06-19T20:19:26.887Z,55.90
2018-06-19T20:29:31.581Z,55.90
2018-06-19T20:39:36.335Z,55.90
2018-06-19T20:49:41.190Z,55.90
2018-06-19T20:59:45.947Z,55.90
2018-06-19T21:09:50.826Z,55.90
2018-06-19T21:19:55.486Z,55.90
2018-06-19T21:30:00.201Z,55.80
2018-06-19T21:40:05.042Z,55.80
2018-06-19T21:50:09.812Z,55.80
2018-06-19T22:00:14.720Z,55.70
2018-06-19T22:10:19.556Z,55.80
2018-06-19T22:20:24.292Z,55.70
2018-06-19T22:30:29.162Z,55.70
2018-06-19T22:40:33.715Z,56.30
2018-06-19T22:50:38.567Z,55.60
2018-06-19T23:00:43.396Z,55.70
2018-06-19T23:10:48.105Z,55.60
2018-06-19T23:20:52.761Z,55.90
2018-06-19T23:30:57.530Z,55.60
2018-06-19T23:41:03.007Z,55.70
2018-06-19T23:51:07.683Z,55.60
